sensor_id;sensor_type;location;lat;lon;timestamp;P1;durP1;ratioP1;P2;durP2;ratioP2
57301;SDS011;43149;50.974;18.224;2023-03-01T00:05:11;145.50;;;61.20;;
57301;SDS011;43149;50.974;18.224;2023-03-01T00:15:01;115.80;;;53.60;;
57301;SDS011;43149;50.974;18.224;2023-03-01T00:24:48;161.60;;;64.90;;
57301;SDS011;43149;50.974;18.224;2023-03-01T00:34:31;115.80;;;58.40;;
57301;SDS011;43149;50.974;18.224;2023-03-01T00:44:22;143.10;;;61.40;;
57301;SDS011;43149;50.974;18.224;2023-03-01T00:54:09;164.10;;;66.20;;
57301;SDS011;43149;50.974;18.224;2023-03-01T01:03:57;132.70;;;61.20;;
57301;SDS011;43149;50.974;18.224;2023-03-01T01:13:48;140.30;;;61.60;;
57301;SDS011;43149;50.974;18.224;2023-03-01T01:23:33;86.30;;;44.90;;
57301;SDS011;43149;50.974;18.224;2023-03-01T01:33:23;118.70;;;52.60;;
57301;SDS011;43149;50.974;18.224;2023-03-01T01:43:26;133.90;;;59.80;;
57301;SDS011;43149;50.974;18.224;2023-03-01T01:53:16;168.00;;;67.00;;
57301;SDS011;43149;50.974;18.224;2023-03-01T02:03:13;147.60;;;67.80;;
57301;SDS011;43149;50.974;18.224;2023-03-01T02:13:12;123.40;;;54.80;;
57301;SDS011;43149;50.974;18.224;2023-03-01T02:22:59;136.90;;;59.50;;
57301;SDS011;43149;50.974;18.224;2023-03-01T02:32:47;137.90;;;65.60;;
57301;SDS011;43149;50.974;18.224;2023-03-01T02:42:33;91.70;;;31.90;;
57301;SDS011;43149;50.974;18.224;2023-03-01T03:02:54;121.30;;;56.00;;
57301;SDS011;43149;50.974;18.224;2023-03-01T03:12:56;160.80;;;55.60;;
57301;SDS011;43149;50.974;18.224;2023-03-01T03:22:49;152.40;;;61.50;;
57301;SDS011;43149;50.974;18.224;2023-03-01T03:32:38;118.20;;;52.70;;
57301;SDS011;43149;50.974;18.224;2023-03-01T03:42:59;146.20;;;66.70;;
57301;SDS011;43149;50.974;18.224;2023-03-01T03:52:43;143.40;;;63.60;;
57301;SDS011;43149;50.974;18.224;2023-03-01T04:02:44;154.60;;;68.10;;
57301;SDS011;43149;50.974;18.224;2023-03-01T04:12:33;144.50;;;66.70;;
57301;SDS011;43149;50.974;18.224;2023-03-01T04:22:17;183.00;;;73.40;;
57301;SDS011;43149;50.974;18.224;2023-03-01T04:32:01;111.00;;;54.30;;
57301;SDS011;43149;50.974;18.224;2023-03-01T04:41:46;113.70;;;50.10;;
57301;SDS011;43149;50.974;18.224;2023-03-01T04:51:29;108.40;;;33.90;;
57301;SDS011;43149;50.974;18.224;2023-03-01T05:01:18;117.90;;;56.10;;
57301;SDS011;43149;50.974;18.224;2023-03-01T05:11:04;153.00;;;65.30;;
57301;SDS011;43149;50.974;18.224;2023-03-01T05:21:01;150.50;;;72.60;;
57301;SDS011;43149;50.974;18.224;2023-03-01T05:30:48;137.10;;;67.90;;
57301;SDS011;43149;50.974;18.224;2023-03-01T05:40:39;139.30;;;55.60;;
57301;SDS011;43149;50.974;18.224;2023-03-01T05:50:27;126.00;;;63.20;;
57301;SDS011;43149;50.974;18.224;2023-03-01T06:00:17;159.10;;;73.20;;
57301;SDS011;43149;50.974;18.224;2023-03-01T06:10:03;108.30;;;48.50;;
57301;SDS011;43149;50.974;18.224;2023-03-01T06:19:48;79.50;;;42.00;;
57301;SDS011;43149;50.974;18.224;2023-03-01T06:29:31;101.10;;;47.30;;
57301;SDS011;43149;50.974;18.224;2023-03-01T06:34:23;203.80;;;109.60;;
57301;SDS011;43149;50.974;18.224;2023-03-01T06:44:07;132.50;;;55.30;;
57301;SDS011;43149;50.974;18.224;2023-03-01T06:53:51;122.40;;;55.30;;
57301;SDS011;43149;50.974;18.224;2023-03-01T07:03:34;144.60;;;62.10;;
57301;SDS011;43149;50.974;18.224;2023-03-01T07:13:23;160.00;;;52.60;;
57301;SDS011;43149;50.974;18.224;2023-03-01T07:23:07;106.50;;;43.70;;
57301;SDS011;43149;50.974;18.224;2023-03-01T07:32:54;88.20;;;42.30;;
57301;SDS011;43149;50.974;18.224;2023-03-01T07:42:38;111.40;;;42.20;;
57301;SDS011;43149;50.974;18.224;2023-03-01T07:52:23;75.00;;;36.20;;
57301;SDS011;43149;50.974;18.224;2023-03-01T08:02:07;97.30;;;36.80;;
57301;SDS011;43149;50.974;18.224;2023-03-01T08:11:51;99.80;;;39.80;;
57301;SDS011;43149;50.974;18.224;2023-03-01T08:21:35;108.80;;;46.90;;
57301;SDS011;43149;50.974;18.224;2023-03-01T08:31:23;77.00;;;38.90;;
57301;SDS011;43149;50.974;18.224;2023-03-01T08:41:15;131.80;;;48.10;;
57301;SDS011;43149;50.974;18.224;2023-03-01T08:51:06;67.30;;;15.70;;
57301;SDS011;43149;50.974;18.224;2023-03-01T09:00:55;110.30;;;42.70;;
57301;SDS011;43149;50.974;18.224;2023-03-01T09:10:44;104.10;;;42.90;;
57301;SDS011;43149;50.974;18.224;2023-03-01T09:20:28;92.60;;;40.50;;
57301;SDS011;43149;50.974;18.224;2023-03-01T09:30:16;99.00;;;33.20;;
57301;SDS011;43149;50.974;18.224;2023-03-01T09:40:04;49.80;;;25.20;;
57301;SDS011;43149;50.974;18.224;2023-03-01T09:50:06;31.60;;;16.60;;
57301;SDS011;43149;50.974;18.224;2023-03-01T10:10:51;19.50;;;13.10;;
57301;SDS011;43149;50.974;18.224;2023-03-01T10:20:59;34.90;;;18.80;;
57301;SDS011;43149;50.974;18.224;2023-03-01T10:30:59;54.90;;;24.80;;
57301;SDS011;43149;50.974;18.224;2023-03-01T10:40:53;78.90;;;29.50;;
57301;SDS011;43149;50.974;18.224;2023-03-01T10:51:32;30.40;;;15.40;;
57301;SDS011;43149;50.974;18.224;2023-03-01T11:21:08;25.60;;;13.00;;
57301;SDS011;43149;50.974;18.224;2023-03-01T11:51:14;44.20;;;15.10;;
57301;SDS011;43149;50.974;18.224;2023-03-01T12:11:32;88.20;;;32.10;;
57301;SDS011;43149;50.974;18.224;2023-03-01T12:42:34;40.70;;;19.60;;
57301;SDS011;43149;50.974;18.224;2023-03-01T12:53:24;23.00;;;15.20;;
57301;SDS011;43149;50.974;18.224;2023-03-01T13:13:21;37.90;;;15.90;;
57301;SDS011;43149;50.974;18.224;2023-03-01T13:33:39;45.20;;;18.50;;
57301;SDS011;43149;50.974;18.224;2023-03-01T13:43:41;28.70;;;15.40;;
57301;SDS011;43149;50.974;18.224;2023-03-01T13:53:33;29.30;;;11.80;;
57301;SDS011;43149;50.974;18.224;2023-03-01T14:03:29;32.80;;;16.00;;
57301;SDS011;43149;50.974;18.224;2023-03-01T14:23:33;126.60;;;37.60;;
57301;SDS011;43149;50.974;18.224;2023-03-01T14:33:23;24.90;;;12.70;;
57301;SDS011;43149;50.974;18.224;2023-03-01T14:43:33;82.00;;;21.10;;
57301;SDS011;43149;50.974;18.224;2023-03-01T14:53:19;30.90;;;12.80;;
57301;SDS011;43149;50.974;18.224;2023-03-01T15:03:17;19.70;;;9.50;;
57301;SDS011;43149;50.974;18.224;2023-03-01T15:13:29;36.10;;;13.40;;
57301;SDS011;43149;50.974;18.224;2023-03-01T15:23:23;30.90;;;15.70;;
57301;SDS011;43149;50.974;18.224;2023-03-01T15:43:48;58.70;;;21.30;;
57301;SDS011;43149;50.974;18.224;2023-03-01T15:53:40;436.20;;;131.40;;
57301;SDS011;43149;50.974;18.224;2023-03-01T16:03:27;53.60;;;23.00;;
57301;SDS011;43149;50.974;18.224;2023-03-01T16:13:12;53.50;;;25.10;;
57301;SDS011;43149;50.974;18.224;2023-03-01T16:23:03;48.40;;;17.80;;
57301;SDS011;43149;50.974;18.224;2023-03-01T16:32:52;21.20;;;12.20;;
57301;SDS011;43149;50.974;18.224;2023-03-01T16:42:43;47.50;;;15.80;;
57301;SDS011;43149;50.974;18.224;2023-03-01T16:52:27;36.80;;;14.80;;
57301;SDS011;43149;50.974;18.224;2023-03-01T17:09:34;40.00;;;14.10;;
57301;SDS011;43149;50.974;18.224;2023-03-01T17:19:18;56.90;;;15.60;;
57301;SDS011;43149;50.974;18.224;2023-03-01T17:29:02;44.40;;;17.80;;
57301;SDS011;43149;50.974;18.224;2023-03-01T17:38:47;55.10;;;20.90;;
57301;SDS011;43149;50.974;18.224;2023-03-01T17:48:36;58.10;;;27.50;;
57301;SDS011;43149;50.974;18.224;2023-03-01T17:58:25;43.10;;;18.10;;
57301;SDS011;43149;50.974;18.224;2023-03-01T18:08:09;61.70;;;24.60;;
57301;SDS011;43149;50.974;18.224;2023-03-01T18:17:55;61.70;;;17.20;;
57301;SDS011;43149;50.974;18.224;2023-03-01T18:34:57;35.10;;;17.80;;
57301;SDS011;43149;50.974;18.224;2023-03-01T18:44:45;34.20;;;17.90;;
57301;SDS011;43149;50.974;18.224;2023-03-01T18:54:31;105.50;;;42.80;;
57301;SDS011;43149;50.974;18.224;2023-03-01T19:04:15;46.90;;;24.10;;
57301;SDS011;43149;50.974;18.224;2023-03-01T19:14:00;55.80;;;29.90;;
57301;SDS011;43149;50.974;18.224;2023-03-01T19:23:49;58.80;;;24.50;;
57301;SDS011;43149;50.974;18.224;2023-03-01T19:33:37;62.20;;;21.60;;
57301;SDS011;43149;50.974;18.224;2023-03-01T19:43:29;162.70;;;49.00;;
57301;SDS011;43149;50.974;18.224;2023-03-01T19:53:13;172.90;;;80.30;;
57301;SDS011;43149;50.974;18.224;2023-03-01T20:03:01;114.90;;;41.50;;
57301;SDS011;43149;50.974;18.224;2023-03-01T20:12:51;106.30;;;40.70;;
57301;SDS011;43149;50.974;18.224;2023-03-01T20:29:55;76.30;;;38.70;;
57301;SDS011;43149;50.974;18.224;2023-03-01T20:39:39;46.30;;;22.20;;
57301;SDS011;43149;50.974;18.224;2023-03-01T20:49:24;118.90;;;40.70;;
57301;SDS011;43149;50.974;18.224;2023-03-01T20:59:13;96.00;;;40.80;;
57301;SDS011;43149;50.974;18.224;2023-03-01T21:08:58;92.10;;;41.70;;
57301;SDS011;43149;50.974;18.224;2023-03-01T21:26:08;132.40;;;63.10;;
57301;SDS011;43149;50.974;18.224;2023-03-01T21:35:58;144.60;;;64.10;;
57301;SDS011;43149;50.974;18.224;2023-03-01T21:45:48;225.80;;;91.50;;
57301;SDS011;43149;50.974;18.224;2023-03-01T21:55:31;300.90;;;121.30;;
57301;SDS011;43149;50.974;18.224;2023-03-01T22:05:15;303.70;;;128.20;;
57301;SDS011;43149;50.974;18.224;2023-03-01T22:14:59;290.20;;;112.20;;
57301;SDS011;43149;50.974;18.224;2023-03-01T22:24:42;222.90;;;93.80;;
57301;SDS011;43149;50.974;18.224;2023-03-01T22:34:26;172.30;;;72.70;;
57301;SDS011;43149;50.974;18.224;2023-03-01T22:44:12;151.00;;;53.50;;
57301;SDS011;43149;50.974;18.224;2023-03-01T22:54:01;258.70;;;105.50;;
57301;SDS011;43149;50.974;18.224;2023-03-01T23:03:47;376.20;;;143.30;;
57301;SDS011;43149;50.974;18.224;2023-03-01T23:13:40;252.30;;;102.70;;
57301;SDS011;43149;50.974;18.224;2023-03-01T23:23:24;283.50;;;99.20;;
57301;SDS011;43149;50.974;18.224;2023-03-01T23:33:22;233.90;;;90.10;;
57301;SDS011;43149;50.974;18.224;2023-03-01T23:43:06;109.10;;;44.70;;
57301;SDS011;43149;50.974;18.224;2023-03-01T23:52:51;109.60;;;50.50;;
